createdAt,value
2022-08-30T00:01:26.276Z,2.6
2022-08-30T00:03:29.520Z,1.4
2022-08-30T00:05:35.525Z,2
2022-08-30T00:07:38.562Z,2.1
2022-08-30T00:09:41.617Z,1.8
2022-08-30T00:11:44.673Z,3.5
2022-08-30T00:13:47.727Z,1.9
2022-08-30T00:15:50.824Z,1.8
2022-08-30T00:17:53.841Z,2.3
2022-08-30T00:20:00.035Z,2.8
2022-08-30T00:22:03.060Z,3.5
2022-08-30T00:24:06.115Z,2.6
2022-08-30T00:25:09.213Z,2.1
2022-08-30T00:27:12.265Z,2.4
2022-08-30T00:29:15.307Z,1.6
2022-08-30T00:33:24.542Z,3.1
2022-08-30T00:37:30.646Z,2.4
2022-08-30T00:39:33.688Z,4
2022-08-30T00:41:36.769Z,3.8
2022-08-30T00:43:39.811Z,2.8
2022-08-30T00:45:42.869Z,3.2
2022-08-30T00:47:49.207Z,3
2022-08-30T00:49:52.077Z,2.8
2022-08-30T00:56:01.268Z,4.6
2022-08-30T00:58:04.352Z,3
2022-08-30T01:00:07.370Z,4.6
2022-08-30T01:02:13.560Z,3.2
2022-08-30T01:04:16.588Z,4.2
2022-08-30T01:06:19.625Z,3.3
2022-08-30T01:08:22.689Z,3.6
2022-08-30T01:10:25.729Z,3.4
2022-08-30T01:12:28.793Z,3.7
2022-08-30T01:14:31.957Z,5.3
2022-08-30T01:16:38.076Z,4.9
2022-08-30T01:18:41.232Z,5
2022-08-30T01:20:44.290Z,4.1
2022-08-30T01:21:47.457Z,5.5
2022-08-30T01:23:50.539Z,5.1
2022-08-30T01:25:53.595Z,4.5
2022-08-30T01:27:56.738Z,4.7
2022-08-30T01:30:02.921Z,5
2022-08-30T01:32:05.947Z,5.6
2022-08-30T01:34:09.083Z,4.4
2022-08-30T01:36:12.258Z,5.2
2022-08-30T01:38:15.391Z,5.9
2022-08-30T01:40:18.658Z,5.7
2022-08-30T01:42:21.695Z,5.9
2022-08-30T01:44:28.094Z,6.3
2022-08-30T01:46:31.315Z,5.8
2022-08-30T01:48:35.983Z,6.8
2022-08-30T01:50:39.112Z,5.4
2022-08-30T01:52:42.241Z,5.7
2022-08-30T01:54:45.405Z,6.6
2022-08-30T01:56:48.536Z,5.8
2022-08-30T02:00:58.126Z,6.3
2022-08-30T02:05:04.399Z,6.6
2022-08-30T02:07:07.543Z,6.4
2022-08-30T02:09:10.714Z,9.5
2022-08-30T02:11:13.867Z,7.5
2022-08-30T02:13:20.251Z,7.9
2022-08-30T02:19:56.354Z,8
2022-08-30T02:21:59.505Z,7.6
2022-08-30T02:26:09.038Z,7.6
2022-08-30T02:28:12.183Z,7.1
2022-08-30T02:34:21.669Z,7.4
2022-08-30T02:38:27.996Z,10.3
2022-08-30T02:40:34.429Z,9.5
2022-08-30T02:42:37.521Z,10.2
2022-08-30T02:44:40.666Z,8.8
2022-08-30T02:46:43.826Z,8.7
2022-08-30T02:48:46.983Z,8.9
2022-08-30T02:50:50.153Z,8.3
2022-08-30T02:52:53.287Z,9.7
2022-08-30T02:54:59.657Z,9.5
2022-08-30T02:57:02.817Z,10.9
2022-08-30T02:59:05.961Z,8.5
2022-08-30T03:01:09.155Z,11.2
2022-08-30T03:03:12.263Z,9
2022-08-30T03:05:15.428Z,10.4
2022-08-30T03:07:18.570Z,9.6
2022-08-30T03:13:31.249Z,10.1
2022-08-30T03:18:40.773Z,8.9
2022-08-30T03:22:50.338Z,12.9
2022-08-30T03:24:53.425Z,12.3
2022-08-30T03:28:59.738Z,10.8
2022-08-30T03:31:02.840Z,10.4
2022-08-30T03:35:09.266Z,11.9
2022-08-30T03:39:18.707Z,12.2
2022-08-30T03:43:24.992Z,10.6
2022-08-30T03:49:34.484Z,13.1
2022-08-30T03:51:40.851Z,12.3
2022-08-30T03:53:44.045Z,12.8
2022-08-30T03:55:47.380Z,13.1
2022-08-30T03:57:50.357Z,14.1
2022-08-30T03:59:53.518Z,11.8
2022-08-30T04:01:56.771Z,15.4
2022-08-30T04:03:59.825Z,12.6
2022-08-30T04:06:06.207Z,13.7
2022-08-30T04:08:09.342Z,12.3
2022-08-30T04:10:12.502Z,12.4
2022-08-30T04:11:15.662Z,14
2022-08-30T04:13:18.830Z,13.7
2022-08-30T04:15:22.001Z,13.6
2022-08-30T04:17:25.137Z,13.3
2022-08-30T04:19:31.626Z,13
2022-08-30T04:21:37.492Z,12.4
2022-08-30T04:23:37.822Z,12.3
2022-08-30T04:25:40.954Z,12.4
2022-08-30T04:27:44.132Z,11.5
2022-08-30T04:31:50.474Z,11.7
2022-08-30T04:35:59.945Z,13.5
2022-08-30T04:38:03.226Z,13.1
2022-08-30T04:40:06.319Z,12
2022-08-30T04:42:09.385Z,13.2
2022-08-30T04:44:14.201Z,13.6
2022-08-30T04:46:15.780Z,13.6
2022-08-30T04:54:31.466Z,12.9
2022-08-30T05:00:40.962Z,14.3
2022-08-30T05:04:50.445Z,16.2
2022-08-30T05:09:59.932Z,14.8
2022-08-30T05:12:03.079Z,16.7
2022-08-30T05:16:12.610Z,14.9
2022-08-30T05:18:15.755Z,14.2
2022-08-30T05:20:18.900Z,14.8
2022-08-30T05:22:22.099Z,14.7
2022-08-30T05:24:25.218Z,13
2022-08-30T05:28:31.526Z,12.2
2022-08-30T05:30:37.901Z,15.6
2022-08-30T05:32:41.056Z,13.7
2022-08-30T05:34:44.209Z,15.3
2022-08-30T05:36:47.371Z,16.3
2022-08-30T05:38:50.529Z,13.5
2022-08-30T05:40:53.677Z,12.8
2022-08-30T05:42:56.840Z,13.1
2022-08-30T05:45:03.183Z,13.1
2022-08-30T05:47:06.371Z,12.8
2022-08-30T05:49:09.489Z,13.1
2022-08-30T05:51:12.655Z,10.6
2022-08-30T05:53:15.784Z,10
2022-08-30T05:55:18.933Z,11.7
2022-08-30T05:57:22.083Z,11.4
2022-08-30T05:59:28.474Z,11.5
2022-08-30T06:01:31.662Z,9.2
2022-08-30T06:03:34.758Z,10.2
2022-08-30T06:05:59.081Z,9.9
2022-08-30T06:08:02.246Z,8.4
2022-08-30T06:10:05.414Z,8.7
2022-08-30T06:12:11.736Z,7.7
2022-08-30T06:14:14.908Z,8
2022-08-30T06:16:18.142Z,7
2022-08-30T06:18:28.454Z,4.5
2022-08-30T06:20:24.376Z,4.5
2022-08-30T06:22:27.547Z,4.6
2022-08-30T06:24:53.669Z,4.1
2022-08-30T06:26:36.891Z,3.7
2022-08-30T06:28:39.929Z,2.8
2022-08-30T06:30:42.968Z,2.5
2022-08-30T06:32:46.028Z,3.9
2022-08-30T06:34:49.074Z,3.2
2022-08-30T06:36:52.140Z,1.8
2022-08-30T06:38:55.189Z,1.8
2022-08-30T06:41:01.332Z,2.4
2022-08-30T06:43:04.366Z,2
2022-08-30T06:45:10.713Z,1.7
2022-08-30T06:47:10.482Z,3.5
2022-08-30T06:51:16.520Z,1.1
2022-08-30T06:53:19.558Z,1.3
2022-08-30T06:55:25.702Z,1.3
2022-08-30T07:00:34.819Z,0.5
2022-08-30T07:02:37.890Z,1.4
2022-08-30T07:06:43.905Z,0.1
2022-08-30T07:08:50.050Z,0.7
2022-08-30T07:10:53.045Z,0.6
2022-08-30T07:12:56.040Z,0.4
2022-08-30T07:14:59.047Z,0.3
2022-08-30T07:17:02.032Z,0.3
2022-08-30T07:19:05.057Z,0.3
2022-08-30T07:21:08.024Z,0.1
2022-08-30T07:23:14.126Z,0.7
2022-08-30T07:25:17.088Z,0.4
2022-08-30T07:27:20.092Z,0.3
2022-08-30T07:41:43.968Z,0.1
2022-08-30T07:47:54.369Z,0.1
2022-08-30T07:57:12.285Z,0.1
2022-08-30T07:59:15.238Z,0.1
2022-08-30T08:01:18.809Z,0.3
2022-08-30T08:03:21.671Z,0.1
2022-08-30T08:05:27.738Z,0.2
2022-08-30T08:07:30.672Z,0.1
2022-08-30T08:09:33.578Z,0
2022-08-30T08:11:36.503Z,0.1
2022-08-30T08:13:53.220Z,0.1
2022-08-30T08:15:42.341Z,0.4
2022-08-30T08:17:45.246Z,0.3
2022-08-30T08:22:04.132Z,0.3
2022-08-30T08:23:57.091Z,0.1
2022-08-30T08:34:14.723Z,0.1
2022-08-30T08:42:26.298Z,0.3
2022-08-30T08:48:58.634Z,0.1
2022-08-30T08:52:43.849Z,0.1
2022-08-30T08:53:47.281Z,0
2022-08-30T08:55:49.815Z,0.1
2022-08-30T08:59:55.503Z,0.2
2022-08-30T09:02:01.649Z,0
2022-08-30T09:04:04.405Z,0.1
2022-08-30T09:06:07.292Z,0
2022-08-30T09:08:10.322Z,0.2
2022-08-30T09:10:13.010Z,0.4
2022-08-30T09:12:15.870Z,0.1
2022-08-30T09:14:18.749Z,0.2
2022-08-30T09:16:24.772Z,0.1
2022-08-30T09:18:27.599Z,0.1
2022-08-30T09:20:30.471Z,0
2022-08-30T09:22:33.337Z,0.1
2022-08-30T09:24:36.180Z,0.2
2022-08-30T09:26:39.046Z,0.2
2022-08-30T09:28:41.885Z,0
2022-08-30T09:30:47.928Z,0.1
2022-08-30T09:32:50.751Z,0.1
2022-08-30T09:34:53.595Z,0.3
2022-08-30T09:36:56.456Z,0.1
2022-08-30T09:41:02.166Z,0.5
2022-08-30T09:43:05.006Z,0.2
2022-08-30T09:45:10.985Z,0
2022-08-30T09:47:13.830Z,0
2022-08-30T09:49:16.686Z,0.1
2022-08-30T09:51:45.743Z,0.1
2022-08-30T09:54:07.274Z,0.1
2022-08-30T09:55:51.424Z,0.1
2022-08-30T09:57:57.431Z,0
2022-08-30T10:00:00.268Z,0.1
2022-08-30T10:02:03.173Z,0
2022-08-30T10:04:05.922Z,0
2022-08-30T10:06:08.763Z,0.1
2022-08-30T10:08:12.891Z,0.2
2022-08-30T10:10:14.435Z,0
2022-08-30T10:12:20.419Z,0.1
2022-08-30T10:14:23.294Z,0.3
2022-08-30T10:16:26.096Z,0.1
2022-08-30T10:18:28.902Z,0.2
2022-08-30T10:22:34.555Z,0.3
2022-08-30T10:24:37.375Z,0
2022-08-30T10:28:46.779Z,0.2
2022-08-30T10:30:49.045Z,0.1
2022-08-30T10:32:51.882Z,0.2
2022-08-30T10:34:54.744Z,0.1
2022-08-30T10:36:57.618Z,0.2
2022-08-30T10:39:00.485Z,0.1
2022-08-30T10:41:06.473Z,0.1
2022-08-30T10:43:09.376Z,0
2022-08-30T10:45:12.199Z,0.6
2022-08-30T10:46:15.208Z,0.2
2022-08-30T10:48:18.082Z,0.2
2022-08-30T10:50:20.969Z,0.2
2022-08-30T10:52:23.820Z,0.1
2022-08-30T10:54:29.840Z,0.1
2022-08-30T10:58:35.586Z,0.2
2022-08-30T11:00:38.473Z,0
2022-08-30T11:02:41.786Z,0.4
2022-08-30T11:04:45.444Z,0.2
2022-08-30T11:06:47.095Z,0.1
2022-08-30T11:08:53.139Z,0.1
2022-08-30T11:10:56.000Z,0.1
2022-08-30T11:12:58.856Z,0.2
2022-08-30T11:15:01.734Z,1
2022-08-30T11:17:04.592Z,1
2022-08-30T11:19:07.471Z,0.2
2022-08-30T11:21:14.205Z,0.2
2022-08-30T11:23:16.408Z,0.2
2022-08-30T11:25:19.199Z,0.2
2022-08-30T11:29:24.868Z,0.4
2022-08-30T11:33:30.524Z,0.3
2022-08-30T11:35:33.317Z,0.2
2022-08-30T11:37:39.307Z,0.1
2022-08-30T11:39:42.100Z,0.1
2022-08-30T11:41:47.809Z,0.3
2022-08-30T11:42:48.288Z,0.3
2022-08-30T11:44:50.595Z,1.2
2022-08-30T11:46:53.354Z,0.4
2022-08-30T11:48:56.114Z,0.5
2022-08-30T11:51:01.997Z,0.3
2022-08-30T11:53:04.867Z,0.1
2022-08-30T11:55:07.465Z,0.3
2022-08-30T11:57:10.192Z,0.1
2022-08-30T12:01:40.861Z,0.2
2022-08-30T12:05:24.266Z,0.2
2022-08-30T12:07:26.951Z,0.1
2022-08-30T12:09:29.689Z,0.1
2022-08-30T12:13:35.103Z,0.2
2022-08-30T12:15:37.813Z,0.4
2022-08-30T12:19:49.500Z,0.1
2022-08-30T12:21:49.023Z,0.1
2022-08-30T12:25:54.365Z,0.2
2022-08-30T12:27:59.620Z,0.3
2022-08-30T12:29:59.711Z,0.2
2022-08-30T12:34:08.232Z,0.6
2022-08-30T12:36:10.870Z,0.3
2022-08-30T12:38:13.615Z,0.3
2022-08-30T12:39:16.440Z,0.1
2022-08-30T12:41:19.085Z,0.4
2022-08-30T12:43:21.719Z,0.2
2022-08-30T12:45:24.293Z,0.1
2022-08-30T12:47:29.873Z,0.3
2022-08-30T12:51:34.932Z,0.2
2022-08-30T12:53:37.467Z,0.2
2022-08-30T12:55:39.983Z,0.3
2022-08-30T12:57:42.499Z,0.2
2022-08-30T12:59:50.543Z,0.2
2022-08-30T13:01:50.772Z,0.1
2022-08-30T13:05:55.557Z,0.2
2022-08-30T13:16:11.162Z,0.1
2022-08-30T13:18:13.665Z,0.2
2022-08-30T13:20:16.294Z,0.2
2022-08-30T13:22:20.274Z,0.1
2022-08-30T13:24:25.222Z,0.4
2022-08-30T13:28:25.983Z,0.1
2022-08-30T13:30:31.564Z,0.2
2022-08-30T13:32:38.186Z,0.2
2022-08-30T13:34:36.469Z,0.1
2022-08-30T13:37:04.523Z,0.1
2022-08-30T13:39:06.921Z,0.4
2022-08-30T13:45:42.415Z,0.1
2022-08-30T13:47:35.512Z,0.3
2022-08-30T13:49:44.624Z,0.1
2022-08-30T13:51:24.757Z,0.2
2022-08-30T13:53:53.693Z,0.3
2022-08-30T13:55:29.830Z,0.1
2022-08-30T13:57:56.135Z,0.2
2022-08-30T13:59:37.989Z,0.1
2022-08-30T14:05:49.410Z,0.1
2022-08-30T14:07:48.379Z,0.2
2022-08-30T14:09:52.812Z,0.1
2022-08-30T14:11:56.742Z,0.1
2022-08-30T14:14:15.081Z,1.5
2022-08-30T14:16:28.817Z,0.1
2022-08-30T14:18:04.544Z,0.2
2022-08-30T14:20:07.147Z,0.3
2022-08-30T14:26:18.134Z,0.2
2022-08-30T14:28:20.633Z,0.1
2022-08-30T14:30:23.131Z,0.1
2022-08-30T14:31:25.931Z,0.3
2022-08-30T14:33:28.509Z,0.3
2022-08-30T14:35:31.185Z,0.1
2022-08-30T14:37:33.741Z,0.1
2022-08-30T14:43:44.645Z,0.2
2022-08-30T14:45:47.300Z,0.1
2022-08-30T14:56:03.561Z,0.7
2022-08-30T14:58:06.200Z,0.5
2022-08-30T15:04:14.291Z,0.4
2022-08-30T15:06:16.896Z,0.5
2022-08-30T15:08:22.720Z,0.3
2022-08-30T15:10:25.413Z,0.1
2022-08-30T15:12:28.109Z,0.1
2022-08-30T15:14:30.848Z,0.3
2022-08-30T15:16:33.648Z,0.2
2022-08-30T15:20:39.022Z,0.2
2022-08-30T15:22:46.172Z,0.1
2022-08-30T15:24:48.927Z,0.9
2022-08-30T15:26:50.431Z,0.1
2022-08-30T15:29:56.155Z,0.1
2022-08-30T15:31:59.024Z,0.9
2022-08-30T15:34:01.704Z,1
2022-08-30T15:36:07.660Z,0.5
2022-08-30T15:38:10.510Z,0.4
2022-08-30T15:40:13.233Z,1.8
2022-08-30T15:42:19.452Z,0
2022-08-30T15:48:24.414Z,0.5
2022-08-30T15:54:35.965Z,0.4
2022-08-30T15:56:38.778Z,0.3
2022-08-30T15:58:41.581Z,0.2
2022-08-30T16:00:45.050Z,1.7
2022-08-30T16:02:47.203Z,0.7
2022-08-30T16:04:53.185Z,0.3
2022-08-30T16:06:56.000Z,0.2
2022-08-30T16:11:01.642Z,0.1
2022-08-30T16:13:04.460Z,0.2
2022-08-30T16:15:07.319Z,0.1
2022-08-30T16:17:10.122Z,0.2
2022-08-30T16:19:16.109Z,0.4
2022-08-30T16:21:18.937Z,0.1
2022-08-30T16:23:21.796Z,0.3
2022-08-30T16:24:24.822Z,0.3
2022-08-30T16:26:27.611Z,0.2
2022-08-30T16:28:30.471Z,1
2022-08-30T16:30:33.328Z,4.4
2022-08-30T16:32:39.763Z,0.3
2022-08-30T16:34:42.194Z,0.1
2022-08-30T16:36:45.070Z,0.1
2022-08-30T16:42:53.703Z,0.6
2022-08-30T16:49:05.520Z,0.1
2022-08-30T16:51:08.814Z,0.7
2022-08-30T16:53:11.341Z,0.1
2022-08-30T16:55:14.241Z,1
2022-08-30T16:57:17.151Z,0.9
2022-08-30T17:03:29.034Z,0.3
2022-08-30T17:07:34.876Z,0.8
2022-08-30T17:09:37.808Z,0.7
2022-08-30T17:11:40.740Z,0.7
2022-08-30T17:13:43.686Z,0.1
2022-08-30T17:15:49.805Z,0.2
2022-08-30T17:17:52.690Z,0.2
2022-08-30T17:19:55.632Z,0.7
2022-08-30T17:22:19.122Z,2.2
2022-08-30T17:28:31.040Z,0.6
2022-08-30T17:30:34.072Z,0.5
2022-08-30T17:32:36.967Z,0.6
2022-08-30T17:34:39.922Z,0.4
2022-08-30T17:38:45.945Z,2.9
2022-08-30T17:40:48.884Z,0.4
2022-08-30T17:42:54.860Z,1.3
2022-08-30T17:49:03.750Z,13.6
2022-08-30T17:51:06.775Z,1.3
2022-08-30T17:53:09.731Z,2.8
2022-08-30T17:57:18.783Z,0.3
2022-08-30T17:59:25.068Z,1
2022-08-30T18:01:24.809Z,1.2
2022-08-30T18:03:27.755Z,0.2
2022-08-30T18:05:30.717Z,2.5
2022-08-30T18:07:33.699Z,0.6
2022-08-30T18:09:36.743Z,1.4
2022-08-30T18:11:42.820Z,0.2
2022-08-30T18:13:45.806Z,0.5
2022-08-30T18:15:50.727Z,2.6
2022-08-30T18:18:57.227Z,0.3
2022-08-30T18:20:57.908Z,1.2
2022-08-30T18:23:00.837Z,0.6
2022-08-30T18:25:06.991Z,0.4
2022-08-30T18:31:15.970Z,1.2
2022-08-30T18:33:18.947Z,5.8
2022-08-30T18:37:25.273Z,0.1
2022-08-30T18:39:34.694Z,0.3
2022-08-30T18:41:34.143Z,1.1
2022-08-30T18:43:37.132Z,0.6
2022-08-30T18:45:40.164Z,2
2022-08-30T18:47:43.152Z,0.4
2022-08-30T18:49:46.159Z,0.3
2022-08-30T18:51:49.184Z,1.1
2022-08-30T18:53:55.382Z,0.8
2022-08-30T18:55:58.477Z,0.5
2022-08-30T18:58:01.736Z,0.9
2022-08-30T19:00:04.793Z,0.3
2022-08-30T19:02:07.378Z,0.3
2022-08-30T19:04:10.380Z,0.4
2022-08-30T19:06:13.340Z,1.4
2022-08-30T19:08:19.678Z,0.1
2022-08-30T19:10:22.529Z,0.5
2022-08-30T19:12:25.472Z,0.8
2022-08-30T19:13:28.542Z,0.9
2022-08-30T19:15:31.668Z,0.2
2022-08-30T19:17:34.542Z,1.2
2022-08-30T19:19:47.948Z,1.5
2022-08-30T19:21:43.706Z,1
2022-08-30T19:23:46.662Z,0.2
2022-08-30T19:25:53.386Z,0.7
2022-08-30T19:27:52.666Z,0.5
2022-08-30T19:29:55.691Z,0.2
2022-08-30T19:40:15.505Z,0.6
2022-08-30T19:44:21.422Z,0.4
2022-08-30T19:46:24.415Z,0.5
2022-08-30T19:48:29.486Z,0.3
2022-08-30T19:50:33.546Z,0.7
2022-08-30T19:52:36.555Z,0.3
2022-08-30T19:54:39.590Z,1.8
2022-08-30T19:56:42.616Z,1.2
2022-08-30T19:58:45.667Z,0.3
2022-08-30T20:00:54.625Z,0.6
2022-08-30T20:02:51.981Z,0.3
2022-08-30T20:04:57.816Z,3.2
2022-08-30T20:07:00.854Z,0.5
2022-08-30T20:09:03.895Z,1.4
2022-08-30T20:10:06.940Z,0.4
2022-08-30T20:12:09.975Z,1
2022-08-30T20:14:13.665Z,1.4
2022-08-30T20:16:16.009Z,3.4
2022-08-30T20:18:22.329Z,0.2
2022-08-30T20:20:25.173Z,0.2
2022-08-30T20:22:28.173Z,0.3
2022-08-30T20:24:31.225Z,1.1
2022-08-30T20:26:34.542Z,0.6
2022-08-30T20:28:37.303Z,0.9
2022-08-30T20:30:40.376Z,1.2
2022-08-30T20:32:46.435Z,0.8
2022-08-30T20:34:49.486Z,1.1
2022-08-30T20:36:52.532Z,0.4
2022-08-30T20:38:55.550Z,0.8
2022-08-30T20:40:58.582Z,0.4
2022-08-30T20:43:01.637Z,0.2
2022-08-30T20:45:04.665Z,0.6
2022-08-30T20:49:13.889Z,0.3
2022-08-30T20:55:23.000Z,1.3
2022-08-30T20:57:26.050Z,0.4
2022-08-30T21:01:35.349Z,1.3
2022-08-30T21:03:38.319Z,0.6
2022-08-30T21:05:41.385Z,0.5
2022-08-30T21:08:10.920Z,0.8
2022-08-30T21:10:13.909Z,0.2
2022-08-30T21:12:16.945Z,1.2
2022-08-30T21:16:26.223Z,0.8
2022-08-30T21:18:29.221Z,1.1
2022-08-30T21:20:32.266Z,2.4
2022-08-30T21:22:35.340Z,1.2
2022-08-30T21:24:38.394Z,1.6
2022-08-30T21:26:41.438Z,0.6
2022-08-30T21:28:47.653Z,1.1
2022-08-30T21:30:50.766Z,0.5
2022-08-30T21:32:53.728Z,0.9
2022-08-30T21:34:56.772Z,1
2022-08-30T21:41:05.956Z,0.1
2022-08-30T21:45:15.185Z,0.3
2022-08-30T21:47:23.366Z,0.4
2022-08-30T21:49:21.298Z,3.6
2022-08-30T21:51:24.354Z,0.2
2022-08-30T21:53:27.414Z,0.8
2022-08-30T21:55:30.444Z,0.4
2022-08-30T21:57:36.651Z,0.7
2022-08-30T21:59:39.690Z,1.1
2022-08-30T22:01:42.856Z,0.7
2022-08-30T22:04:49.028Z,1
2022-08-30T22:08:55.011Z,0.2
2022-08-30T22:11:01.199Z,0.3
2022-08-30T22:13:04.260Z,1.9
2022-08-30T22:21:16.500Z,0.1
2022-08-30T22:23:19.612Z,0.3
2022-08-30T22:25:25.730Z,0.7
2022-08-30T22:27:28.794Z,0.1
2022-08-30T22:29:31.843Z,0.4
2022-08-30T22:31:34.999Z,0.6
2022-08-30T22:33:37.939Z,1.9
2022-08-30T22:37:47.758Z,0.1
2022-08-30T22:39:50.257Z,1.1
2022-08-30T22:41:53.293Z,0.2
2022-08-30T22:43:56.369Z,0.8
2022-08-30T22:45:59.476Z,1.1
2022-08-30T22:48:02.497Z,1.2
2022-08-30T22:50:05.531Z,0.2
2022-08-30T22:52:08.592Z,0.1
2022-08-30T22:54:14.771Z,0.4
2022-08-30T22:56:17.844Z,0.6
2022-08-30T22:58:20.904Z,1.5
2022-08-30T22:59:30.340Z,0.1
2022-08-30T23:01:27.137Z,0.1
2022-08-30T23:03:30.112Z,0.4
2022-08-30T23:05:33.215Z,0.1
2022-08-30T23:07:39.390Z,0.4
2022-08-30T23:09:42.432Z,0.4
2022-08-30T23:11:45.522Z,0
2022-08-30T23:13:48.552Z,0.2
2022-08-30T23:15:51.623Z,0.3
2022-08-30T23:17:54.686Z,0.1
2022-08-30T23:19:57.747Z,0
2022-08-30T23:22:03.923Z,0.1
2022-08-30T23:24:07.018Z,0.5
2022-08-30T23:26:10.156Z,0.1
2022-08-30T23:30:16.380Z,0.2
2022-08-30T23:34:22.498Z,0
2022-08-30T23:36:28.695Z,0.2
2022-08-30T23:38:31.768Z,0.2
2022-08-30T23:40:34.983Z,0.1
2022-08-30T23:42:37.988Z,0.3
2022-08-30T23:48:49.961Z,0.1
2022-08-30T23:54:59.810Z,0.4
2022-08-30T23:58:06.098Z,0.2
